Pagina principală
METAR-TAF:

METAR-TAF

Aeroporturi :

Port Macquarie, Australia

Latitudine: 31-26-09S, longitudine: 152-51-48E, elevație: 5 m

Observații meteo curente

Raportul a fost făcut în urmă cu 17 de minute, la 10:00 UTC
Vânt 14 kt de la Vest/Sud-vest
Temperatură 15°C
Umiditate 100%
Presiune 1019 hPa
Vizibilitate de 10 km sau mai mult
Nori împrăștiați la o înălțime de 1000 picior
Nori fragmentați la o înălțime de 1600 picior
Total acoperit la o înălțime de 2100 picior

METAR: YPMQ 261000Z AUTO 24014KT 9999 // SCT010 BKN016 OVC021 15/15 Q1019

Ora: 20:17 (10:17 UTC)


TAF: lipsă

Observații și prognoze meteo pentru peste 4.000 de aeroporturi (rapoarte METAR și TAF).

Stațiile disponibile sunt reprezentate pe hartă prin puncte galbene și roșii.

Țineți indicatorul mouse-ului pe punctul dorit pentru a vedea denumirea stației.

Apoi, faceți clic pentru a vedea observațiile și prognozele meteorologice.

Pentru a schimba harta: Pentru mărire, faceți clic pe butoanele verzi cu cruce neagră; pentru micșorare, pe butonul verde cu o liniuță; pentru hărți învecinate, pe săgețile verzi.


METAR-TAF: